< < Back
Terminal Aerodrome Forecast


Current Version              Previous Versions:   1  2  3  4  5  6  7  8  9  

Terminal Aerodrome Forecast

872
FTUS44 KMRX 222326
TAFCHA
TAF
KCHA 222326Z 2300/2324 03004KT P6SM SKC
     FM231500 02007KT P6SM SCT250=

Latest METAR

397
SAUS80 KWBC 231500 RRA
MTRCHA
METAR KCHA 231453Z 01009KT 10SM SCT250 13/05 A3019 RMK AO2 SLP223
T01280050 58002


USA.gov is the U.S. government's official web portal to all federal, state and local government web resources and services.